Time;durP1;ratioP1;P1;durP2;ratioP2;P2;SDS_P1;SDS_P2;PMS_P1;PMS_P2;Temp;Humidity;BMP_temperature;BMP_pressure;BME280_temperature;BME280_humidity;BME280_pressure;Samples;Min_cycle;Max_cycle;Signal;HPM_P1;HPM_P2
2022/12/21 00:01:48;;;;;;;;;;;;;;;9.71;100.00;99971.13;5090767;28;20307;-67
2022/12/21 00:04:13;;;;;;;;;;;;;;;9.73;100.00;99971.94;5101833;28;19972;-68
2022/12/21 00:06:39;;;;;;;;;;;;;;;9.74;100.00;99970.13;5091457;28;20060;-68
2022/12/21 00:09:07;;;;;;;;;;;;;;;9.77;100.00;99970.06;5073889;28;19931;-68
2022/12/21 00:11:33;;;;;;;;;;;;;;;9.78;100.00;99962.06;5082536;28;19965;-68
2022/12/21 00:13:59;;;;;;;;;;;;;;;9.85;100.00;99960.09;5071447;28;20396;-68
2022/12/21 00:16:25;;;;;;;;;;;;;;;9.93;100.00;99961.59;5069435;28;19939;-67
2022/12/21 00:18:51;;;;;;;;;;;;;;;9.98;100.00;99956.97;5071902;28;19932;-68
2022/12/21 00:21:18;;;;;;;;;;;;;;;10.01;100.00;99954.25;5079369;28;19923;-68
2022/12/21 00:23:45;;;;;;;;;;;;;;;10.14;100.00;99949.44;5083823;28;19979;-68
2022/12/21 00:26:12;;;;;;;;;;;;;;;10.24;100.00;99950.88;5079666;28;19921;-67
2022/12/21 00:28:37;;;;;;;;;;;;;;;10.27;100.00;99941.03;5071524;28;19956;-67
2022/12/21 00:31:03;;;;;;;;;;;;;;;10.38;100.00;99945.97;5070112;28;19920;-68
2022/12/21 00:33:29;;;;;;;;;;;;;;;10.44;100.00;99949.28;5069417;28;20046;-68
2022/12/21 00:35:54;;;;;;;;;;;;;;;10.50;100.00;99949.13;5077730;28;20034;-67
2022/12/21 00:38:19;;;;;;;;;;;;;;;10.57;100.00;99949.78;5084259;28;19972;-67
2022/12/21 00:40:45;;;;;;;;;;;;;;;10.60;100.00;99945.22;5086435;28;20022;-67
2022/12/21 00:43:10;;;;;;;;;;;;;;;10.60;100.00;99945.22;5080629;28;19925;-67
2022/12/21 00:45:36;;;;;;;;;;;;;;;10.63;100.00;99955.75;5087382;28;19952;-67
2022/12/21 00:48:02;;;;;;;;;;;;;;;10.65;100.00;99942.41;5083123;28;19978;-66
2022/12/21 00:50:27;;;;;;;;;;;;;;;10.68;100.00;99938.75;5083755;28;19939;-67
2022/12/21 00:52:52;;;;;;;;;;;;;;;10.72;100.00;99937.75;5087127;28;20343;-67
2022/12/21 00:55:17;;;;;;;;;;;;;;;10.75;100.00;99937.63;5073963;28;19945;-67
2022/12/21 00:57:43;;;;;;;;;;;;;;;10.78;100.00;99938.41;5071382;28;19933;-67
2022/12/21 01:00:09;;;;;;;;;;;;;;;10.85;100.00;99936.41;5075845;28;19950;-67
2022/12/21 01:02:34;;;;;;;;;;;;;;;10.97;100.00;99938.63;5092255;28;19955;-67
2022/12/21 01:05:01;;;;;;;;;;;;;;;11.01;100.00;99940.25;5099196;28;19955;-68
2022/12/21 01:07:26;;;;;;;;;;;;;;;11.07;100.00;99935.56;5090754;28;19955;-68
2022/12/21 01:09:52;;;;;;;;;;;;;;;11.12;100.00;99935.44;5089752;28;19920;-67
2022/12/21 01:12:17;;;;;;;;;;;;;;;11.19;100.00;99939.59;5077603;28;20445;-67
2022/12/21 01:14:42;;;;;;;;;;;;;;;11.24;100.00;99937.63;5077166;28;20033;-67
2022/12/21 01:17:08;;;;;;;;;;;;;;;11.29;100.00;99930.34;5085002;28;20019;-67
2022/12/21 01:19:33;;;;;;;;;;;;;;;11.36;100.00;99935.41;5071451;28;19982;-67
2022/12/21 01:21:58;;;;;;;;;;;;;;;11.38;100.00;99930.00;5071634;28;19942;-67
2022/12/21 01:24:23;;;;;;;;;;;;;;;11.42;100.00;99927.16;5078173;28;20008;-67
2022/12/21 01:26:49;;;;;;;;;;;;;;;11.42;100.00;99931.63;5077897;28;19944;-67
2022/12/21 01:29:14;;;;;;;;;;;;;;;11.44;100.00;99935.97;5070918;28;19933;-67
2022/12/21 01:31:40;;;;;;;;;;;;;;;11.47;100.00;99937.66;5072481;28;19945;-67
2022/12/21 01:34:05;;;;;;;;;;;;;;;11.51;100.00;99941.94;5070681;28;20020;-66
2022/12/21 01:36:30;;;;;;;;;;;;;;;11.55;100.00;99933.78;5087479;28;20429;-67
2022/12/21 01:38:56;;;;;;;;;;;;;;;11.63;100.00;99937.03;5091680;28;19944;-67
2022/12/21 01:41:23;;;;;;;;;;;;;;;11.64;100.00;99943.25;5081241;28;19949;-66
2022/12/21 01:43:54;;;;;;;;;;;;;;;11.60;100.00;99941.59;5079748;28;20393;-67
2022/12/21 01:46:22;;;;;;;;;;;;;;;11.62;100.00;99939.75;5082631;28;20049;-67
2022/12/21 01:48:51;;;;;;;;;;;;;;;11.60;100.00;99950.47;5070725;28;19932;-68
2022/12/21 01:51:16;;;;;;;;;;;;;;;11.66;100.00;99939.59;5070104;28;20439;-67
2022/12/21 01:53:54;;;;;;;;;;;;;;;11.68;100.00;99931.53;5088546;28;19984;-67
2022/12/21 01:56:22;;;;;;;;;;;;;;;11.74;100.00;99928.66;5091696;28;19924;-67
2022/12/21 01:58:48;;;;;;;;;;;;;;;11.76;100.00;99929.47;5078928;28;19940;-67
2022/12/21 02:01:13;;;;;;;;;;;;;;;11.74;100.00;99926.88;5071634;28;19928;-67
2022/12/21 02:03:42;;;;;;;;;;;;;;;11.75;100.00;99935.72;5086459;28;19954;-67
2022/12/21 02:06:09;;;;;;;;;;;;;;;11.75;100.00;99923.25;5098615;28;20031;-67
2022/12/21 02:08:34;;;;;;;;;;;;;;;11.83;100.00;99922.94;5087651;28;20047;-67
2022/12/21 02:11:00;;;;;;;;;;;;;;;11.85;100.00;99926.44;5084321;28;20485;-67
2022/12/21 02:13:25;;;;;;;;;;;;;;;11.86;100.00;99917.53;5091488;28;20344;-67
2022/12/21 02:15:53;;;;;;;;;;;;;;;11.89;100.00;99928.91;5091350;28;19966;-67
2022/12/21 02:18:19;;;;;;;;;;;;;;;11.88;100.00;99926.31;5074842;28;19937;-68
2022/12/21 02:20:57;;;;;;;;;;;;;;;11.96;100.00;99918.88;5074758;28;20333;-68
2022/12/21 02:23:40;;;;;;;;;;;;;;;11.98;100.00;99910.84;5077390;28;19939;-68
2022/12/21 02:26:05;;;;;;;;;;;;;;;11.97;100.00;99912.63;5074331;28;19936;-68
2022/12/21 02:28:38;;;;;;;;;;;;;;;11.97;100.00;99915.28;5075770;28;19952;-69
2022/12/21 02:31:13;;;;;;;;;;;;;;;11.98;100.00;99922.34;5074102;28;19920;-68
2022/12/21 02:33:38;;;;;;;;;;;;;;;12.03;100.00;99912.38;5074299;28;19930;-67
2022/12/21 02:36:12;;;;;;;;;;;;;;;12.02;100.00;99912.44;5075456;28;19934;-67
2022/12/21 02:38:52;;;;;;;;;;;;;;;12.03;100.00;99909.72;5080369;28;19993;-67
2022/12/21 02:41:27;;;;;;;;;;;;;;;12.03;100.00;99909.72;5086187;28;19937;-66
2022/12/21 02:44:13;;;;;;;;;;;;;;;12.02;100.00;99905.31;5074929;28;19931;-66
2022/12/21 02:46:57;;;;;;;;;;;;;;;12.04;100.00;99906.13;5076867;28;20050;-66
2022/12/21 02:49:33;;;;;;;;;;;;;;;12.04;100.00;99900.81;5074564;28;19920;-66
2022/12/21 02:52:19;;;;;;;;;;;;;;;12.06;100.00;99895.41;5074650;28;19923;-65
2022/12/21 02:54:44;;;;;;;;;;;;;;;12.04;100.00;99895.47;5076677;28;19934;-66
2022/12/21 02:57:10;;;;;;;;;;;;;;;12.04;100.00;99900.81;5074323;28;19927;-66
2022/12/21 02:59:40;;;;;;;;;;;;;;;12.05;100.00;99890.97;5077817;28;19939;-66
2022/12/21 03:02:24;;;;;;;;;;;;;;;12.07;100.00;99899.78;5077142;28;19931;-65
2022/12/21 03:05:04;;;;;;;;;;;;;;;12.08;100.00;99897.06;5096889;28;19946;-65
2022/12/21 03:07:35;;;;;;;;;;;;;;;12.05;100.00;99891.84;5073942;28;20005;-66
2022/12/21 03:10:00;;;;;;;;;;;;;;;12.05;100.00;99891.84;5074326;28;19969;-65
2022/12/21 03:12:26;;;;;;;;;;;;;;;12.04;100.00;99906.13;5076327;28;20016;-65
2022/12/21 03:15:00;;;;;;;;;;;;;;;12.07;100.00;99906.00;5074074;28;19984;-65
2022/12/21 03:17:28;;;;;;;;;;;;;;;12.10;100.00;99900.53;5075583;28;20033;-65
2022/12/21 03:20:12;;;;;;;;;;;;;;;12.11;100.00;99902.25;5073363;28;19925;-65
2022/12/21 03:23:03;;;;;;;;;;;;;;;12.09;100.00;99901.50;5087628;28;19975;-66
2022/12/21 03:25:34;;;;;;;;;;;;;;;12.08;100.00;99890.84;5071198;28;20342;-65
2022/12/21 03:28:08;;;;;;;;;;;;;;;12.11;100.00;99896.94;5073065;28;19959;-65
2022/12/21 03:30:39;;;;;;;;;;;;;;;12.11;100.00;99891.59;5089565;28;20631;-65
2022/12/21 03:33:07;;;;;;;;;;;;;;;12.09;100.00;99887.28;5094070;28;20019;-64
2022/12/21 03:35:53;;;;;;;;;;;;;;;12.11;100.00;99896.94;5090778;28;19942;-65
2022/12/21 03:38:44;;;;;;;;;;;;;;;12.10;100.00;99900.53;5093283;28;19937;-65
2022/12/21 03:41:12;;;;;;;;;;;;;;;12.10;100.00;99889.88;5085014;28;19927;-64
2022/12/21 03:43:40;;;;;;;;;;;;;;;12.06;100.00;99893.59;5073716;28;19982;-64
2022/12/21 03:46:07;;;;;;;;;;;;;;;12.06;100.00;99904.25;5073440;28;19962;-65
2022/12/21 03:48:35;;;;;;;;;;;;;;;12.08;100.00;99891.72;5073518;28;19952;-65
2022/12/21 03:51:04;;;;;;;;;;;;;;;12.10;100.00;99894.34;5075454;28;19970;-64
2022/12/21 03:53:38;;;;;;;;;;;;;;;12.09;100.00;99882.81;5081264;28;19939;-65
2022/12/21 03:56:06;;;;;;;;;;;;;;;12.07;100.00;99890.00;5093102;28;20145;-64
2022/12/21 03:58:31;;;;;;;;;;;;;;;12.05;100.00;99886.53;5091376;28;19997;-66
2022/12/21 04:01:06;;;;;;;;;;;;;;;12.07;100.00;99882.00;5074297;28;20580;-67
2022/12/21 04:03:38;;;;;;;;;;;;;;;12.04;100.00;99887.47;5086034;28;20074;-68
2022/12/21 04:06:07;;;;;;;;;;;;;;;12.05;100.00;99881.19;5082709;28;19939;-68
2022/12/21 04:08:32;;;;;;;;;;;;;;;12.06;100.00;99884.75;5073285;28;20351;-68
2022/12/21 04:10:58;;;;;;;;;;;;;;;12.06;100.00;99882.06;5075468;28;20089;-68
2022/12/21 04:13:23;;;;;;;;;;;;;;;12.05;100.00;99875.88;5075664;28;19958;-68
2022/12/21 04:16:03;;;;;;;;;;;;;;;12.05;100.00;99885.66;5073050;28;19930;-68
2022/12/21 04:21:20;;;;;;;;;;;;;;;12.08;100.00;99877.53;5092057;28;19983;-68
2022/12/21 04:29:13;;;;;;;;;;;;;;;12.04;100.00;99879.47;5075486;28;20023;-69
2022/12/21 04:31:38;;;;;;;;;;;;;;;12.03;100.00;99877.72;5092251;28;20019;-69
2022/12/21 04:34:03;;;;;;;;;;;;;;;12.05;100.00;99875.88;5092053;28;20009;-69
2022/12/21 04:39:13;;;;;;;;;;;;;;;12.06;100.00;99869.59;5074571;28;19943;-70
2022/12/21 04:41:38;;;;;;;;;;;;;;;12.10;100.00;99873.88;5072744;28;19927;-69
2022/12/21 04:44:03;;;;;;;;;;;;;;;12.08;100.00;99875.72;5075137;28;20426;-70
2022/12/21 04:46:29;;;;;;;;;;;;;;;12.10;100.00;99871.22;5074439;28;19959;-70
2022/12/21 04:48:54;;;;;;;;;;;;;;;12.10;100.00;99879.22;5072465;28;19946;-69
2022/12/21 04:51:21;;;;;;;;;;;;;;;12.09;100.00;99874.81;5087551;28;19940;-69
2022/12/21 04:53:46;;;;;;;;;;;;;;;12.07;100.00;99871.34;5092345;28;19928;-70
2022/12/21 04:56:12;;;;;;;;;;;;;;;12.10;100.00;99868.56;5087127;28;19967;-70
2022/12/21 04:58:38;;;;;;;;;;;;;;;12.09;100.00;99860.63;5092574;28;19924;-70
2022/12/21 05:01:14;;;;;;;;;;;;;;;12.10;100.00;99868.56;5092141;28;20365;-68
2022/12/21 05:03:39;;;;;;;;;;;;;;;12.12;100.00;99866.69;5089378;28;19919;-69
2022/12/21 05:06:05;;;;;;;;;;;;;;;12.11;100.00;99866.75;5095654;28;20264;-68
2022/12/21 05:08:30;;;;;;;;;;;;;;;12.11;100.00;99864.94;5087556;28;20276;-69
2022/12/21 05:11:05;;;;;;;;;;;;;;;12.13;100.00;99867.53;5091646;28;19928;-69
2022/12/21 05:13:32;;;;;;;;;;;;;;;12.16;100.00;99862.94;5089035;28;20298;-69
2022/12/21 05:16:01;;;;;;;;;;;;;;;12.16;100.00;99854.09;5071682;28;20668;-69
2022/12/21 05:18:27;;;;;;;;;;;;;;;12.16;100.00;99860.28;5071062;28;20399;-69
2022/12/21 05:20:52;;;;;;;;;;;;;;;12.17;100.00;99858.50;5074025;28;20378;-69
2022/12/21 05:23:17;;;;;;;;;;;;;;;12.18;100.00;99855.75;5071842;28;19930;-69
2022/12/21 05:25:43;;;;;;;;;;;;;;;12.18;100.00;99855.75;5071789;28;20052;-68
2022/12/21 05:28:08;;;;;;;;;;;;;;;12.17;100.00;99848.72;5071634;28;19990;-68
2022/12/21 05:30:33;;;;;;;;;;;;;;;12.18;100.00;99850.44;5080495;28;19943;-68
2022/12/21 05:33:00;;;;;;;;;;;;;;;12.24;100.00;99844.00;5091838;28;19926;-68
2022/12/21 05:35:25;;;;;;;;;;;;;;;12.19;100.00;99846.81;5091671;28;19932;-68
2022/12/21 05:37:50;;;;;;;;;;;;;;;12.20;100.00;99851.25;5089756;28;20338;-68
2022/12/21 05:40:15;;;;;;;;;;;;;;;12.20;100.00;99847.69;5073885;28;19933;-68
2022/12/21 05:42:41;;;;;;;;;;;;;;;12.18;100.00;99845.09;5070098;28;19942;-68
2022/12/21 05:45:06;;;;;;;;;;;;;;;12.17;100.00;99847.84;5071400;28;19931;-68
2022/12/21 05:47:31;;;;;;;;;;;;;;;12.24;100.00;99842.16;5073718;28;19958;-69
2022/12/21 05:49:57;;;;;;;;;;;;;;;12.22;100.00;99833.38;5071446;28;19930;-68
2022/12/21 05:52:22;;;;;;;;;;;;;;;12.24;100.00;99839.50;5071436;28;19926;-69
2022/12/21 05:54:47;;;;;;;;;;;;;;;12.20;100.00;99832.56;5071143;28;20304;-68
2022/12/21 05:57:12;;;;;;;;;;;;;;;12.22;100.00;99835.19;5076044;28;19936;-68
2022/12/21 05:59:38;;;;;;;;;;;;;;;12.18;100.00;99838.88;5090294;28;20031;-68
2022/12/21 06:02:03;;;;;;;;;;;;;;;12.20;100.00;99837.03;5076512;28;20299;-68
2022/12/21 06:04:28;;;;;;;;;;;;;;;12.20;100.00;99837.91;5099344;28;19942;-69
2022/12/21 06:06:54;;;;;;;;;;;;;;;12.17;100.00;99839.84;5087336;28;20057;-68
2022/12/21 06:09:19;;;;;;;;;;;;;;;12.16;100.00;99846.94;5070473;28;19930;-68
2022/12/21 06:11:44;;;;;;;;;;;;;;;12.19;100.00;99849.50;5070842;28;20022;-69
2022/12/21 06:14:10;;;;;;;;;;;;;;;12.20;100.00;99845.03;5071142;28;19931;-68
2022/12/21 06:16:35;;;;;;;;;;;;;;;12.24;100.00;99841.31;5072316;28;19933;-68
2022/12/21 06:19:00;;;;;;;;;;;;;;;12.20;100.00;99853.91;5073082;28;19938;-68
2022/12/21 06:21:25;;;;;;;;;;;;;;;12.23;100.00;99859.09;5071762;28;19979;-68
2022/12/21 06:23:51;;;;;;;;;;;;;;;12.23;100.00;99858.22;5073143;28;19979;-68
2022/12/21 06:26:17;;;;;;;;;;;;;;;12.24;100.00;99860.00;5071244;28;19937;-68
2022/12/21 06:28:53;;;;;;;;;;;;;;;12.22;100.00;99867.19;5073295;28;19957;-68
2022/12/21 06:31:19;;;;;;;;;;;;;;;12.26;100.00;99874.97;5071074;28;19927;-68
2022/12/21 06:33:44;;;;;;;;;;;;;;;12.30;100.00;99871.25;5074305;28;19932;-68
2022/12/21 06:36:10;;;;;;;;;;;;;;;12.29;100.00;99864.19;5091061;28;19942;-68
2022/12/21 06:38:35;;;;;;;;;;;;;;;12.26;100.00;99874.09;5090923;28;19962;-68
2022/12/21 06:41:03;;;;;;;;;;;;;;;12.32;100.00;99868.53;5077296;28;20049;-69
2022/12/21 06:43:29;;;;;;;;;;;;;;;12.31;100.00;99870.31;5086168;28;19945;-68
2022/12/21 06:45:58;;;;;;;;;;;;;;;12.35;100.00;99869.28;5091037;28;20061;-68
2022/12/21 06:48:25;;;;;;;;;;;;;;;12.32;100.00;99874.72;5087537;28;19942;-68
2022/12/21 06:50:54;;;;;;;;;;;;;;;12.35;100.00;99879.94;5088199;28;19934;-68
2022/12/21 06:53:19;;;;;;;;;;;;;;;12.35;100.00;99877.28;5090808;28;20069;-68
2022/12/21 06:55:45;;;;;;;;;;;;;;;12.35;100.00;99879.94;5091069;28;20024;-68
2022/12/21 06:58:10;;;;;;;;;;;;;;;12.34;100.00;99883.53;5078550;28;19935;-68
2022/12/21 07:00:35;;;;;;;;;;;;;;;12.31;100.00;99883.66;5090987;28;19981;-68
2022/12/21 07:03:00;;;;;;;;;;;;;;;12.33;100.00;99881.78;5089182;28;19988;-68
2022/12/21 07:05:25;;;;;;;;;;;;;;;12.32;100.00;99874.72;5103906;28;20439;-68
2022/12/21 07:07:51;;;;;;;;;;;;;;;12.34;100.00;99888.84;5094399;28;19953;-68
2022/12/21 07:10:16;;;;;;;;;;;;;;;12.31;100.00;99894.31;5091352;28;20011;-68
2022/12/21 07:12:41;;;;;;;;;;;;;;;12.31;100.00;99886.31;5084771;28;20320;-68
2022/12/21 07:15:07;;;;;;;;;;;;;;;12.34;100.00;99891.53;5073561;28;19931;-68
2022/12/21 07:17:32;;;;;;;;;;;;;;;12.36;100.00;99889.66;5075025;28;20380;-67
2022/12/21 07:19:57;;;;;;;;;;;;;;;12.35;100.00;99905.75;5085971;28;19940;-67
2022/12/21 07:22:23;;;;;;;;;;;;;;;12.30;100.00;99900.59;5093757;28;20429;-67
2022/12/21 07:24:49;;;;;;;;;;;;;;;12.33;100.00;99897.81;5089189;28;19938;-68
2022/12/21 07:27:14;;;;;;;;;;;;;;;12.35;100.00;99914.63;5093644;28;20380;-67
2022/12/21 07:29:39;;;;;;;;;;;;;;;12.33;100.00;99903.13;5091489;28;19928;-68
2022/12/21 07:32:04;;;;;;;;;;;;;;;12.33;100.00;99903.13;5074016;28;19967;-68
2022/12/21 07:34:30;;;;;;;;;;;;;;;12.33;100.00;99908.47;5074052;28;20314;-69
2022/12/21 07:36:55;;;;;;;;;;;;;;;12.31;100.00;99915.66;5080277;28;19933;-68
2022/12/21 07:39:20;;;;;;;;;;;;;;;12.30;100.00;99916.59;5075493;28;19942;-67
2022/12/21 07:41:46;;;;;;;;;;;;;;;12.29;100.00;99914.84;5076596;28;19983;-67
2022/12/21 07:44:11;;;;;;;;;;;;;;;12.29;100.00;99917.50;5087536;28;20387;-67
2022/12/21 07:46:36;;;;;;;;;;;;;;;12.23;100.00;99912.44;5091619;28;19985;-66
2022/12/21 07:49:01;;;;;;;;;;;;;;;12.32;100.00;99911.19;5094071;28;19935;-68
2022/12/21 07:51:27;;;;;;;;;;;;;;;12.31;100.00;99921.00;5077319;28;20584;-67
2022/12/21 07:53:52;;;;;;;;;;;;;;;12.30;100.00;99923.72;5073808;28;19927;-67
2022/12/21 07:56:19;;;;;;;;;;;;;;;12.34;100.00;99926.19;5076214;28;19936;-67
2022/12/21 07:58:44;;;;;;;;;;;;;;;12.35;100.00;99921.75;5084273;28;19930;-67
2022/12/21 08:01:12;;;;;;;;;;;;;;;12.32;100.00;99922.72;5086137;28;19982;-67
2022/12/21 08:03:38;;;;;;;;;;;;;;;12.34;100.00;99930.69;5078432;28;20000;-67
2022/12/21 08:06:04;;;;;;;;;;;;;;;12.35;100.00;99913.75;5082776;28;19932;-67
2022/12/21 08:08:29;;;;;;;;;;;;;;;12.35;100.00;99917.28;5081594;28;19949;-67
2022/12/21 08:10:54;;;;;;;;;;;;;;;12.39;100.00;99913.53;5074395;28;19944;-67
2022/12/21 08:13:20;;;;;;;;;;;;;;;12.38;100.00;99914.47;5071616;28;20484;-67
2022/12/21 08:15:45;;;;;;;;;;;;;;;12.39;100.00;99924.22;5071115;28;19937;-67
2022/12/21 08:18:10;;;;;;;;;;;;;;;12.40;100.00;99936.63;5073552;28;19929;-67
2022/12/21 08:20:36;;;;;;;;;;;;;;;12.41;100.00;99929.47;5071196;28;19928;-67
2022/12/21 08:23:01;;;;;;;;;;;;;;;12.40;100.00;99930.41;5074491;28;19965;-67
2022/12/21 08:25:26;;;;;;;;;;;;;;;12.42;100.00;99928.56;5070756;28;19961;-67
2022/12/21 08:27:52;;;;;;;;;;;;;;;12.40;100.00;99930.41;5071040;28;19928;-67
2022/12/21 08:30:17;;;;;;;;;;;;;;;12.39;100.00;99913.53;5071762;28;19925;-67
2022/12/21 08:32:43;;;;;;;;;;;;;;;12.40;100.00;99909.97;5071720;28;20026;-67
2022/12/21 08:35:08;;;;;;;;;;;;;;;12.44;100.00;99900.88;5078575;28;19923;-67
2022/12/21 08:37:33;;;;;;;;;;;;;;;12.44;100.00;99910.66;5091943;28;19946;-67
2022/12/21 08:39:59;;;;;;;;;;;;;;;12.44;100.00;99916.88;5079240;28;19962;-67
2022/12/21 08:42:24;;;;;;;;;;;;;;;12.46;100.00;99912.38;5073032;28;19939;-67
2022/12/21 08:44:49;;;;;;;;;;;;;;;12.51;100.00;99917.50;5084276;28;19949;-67
2022/12/21 08:47:14;;;;;;;;;;;;;;;12.58;100.00;99927.00;5072184;28;20003;-67
2022/12/21 08:49:40;;;;;;;;;;;;;;;12.60;100.00;99917.97;5071087;28;20375;-66
2022/12/21 08:52:05;;;;;;;;;;;;;;;12.61;100.00;99919.72;5074271;28;19931;-67
2022/12/21 08:54:30;;;;;;;;;;;;;;;12.63;100.00;99920.53;5073537;28;19916;-67
2022/12/21 08:56:56;;;;;;;;;;;;;;;12.61;100.00;99927.72;5079018;28;19966;-66
2022/12/21 08:59:21;;;;;;;;;;;;;;;12.67;100.00;99940.81;5072504;28;19942;-67
2022/12/21 09:01:47;;;;;;;;;;;;;;;12.72;100.00;99936.13;5072967;28;19982;-67
2022/12/21 09:04:12;;;;;;;;;;;;;;;12.78;100.00;99935.88;5096621;28;19922;-67
2022/12/21 09:06:38;;;;;;;;;;;;;;;12.82;100.00;99929.47;5093535;28;19942;-67
2022/12/21 09:09:03;;;;;;;;;;;;;;;12.93;100.00;99943.22;5082932;28;19927;-66
2022/12/21 09:11:28;;;;;;;;;;;;;;;13.02;100.00;99942.88;5089427;28;19926;-67
2022/12/21 09:13:53;;;;;;;;;;;;;;;13.10;100.00;99946.06;5077880;28;19933;-66
2022/12/21 09:16:20;;;;;;;;;;;;;;;13.18;100.00;99943.94;5072040;28;20333;-66
2022/12/21 09:18:46;;;;;;;;;;;;;;;13.26;100.00;99945.41;5075260;28;19916;-66
2022/12/21 09:21:12;;;;;;;;;;;;;;;13.20;100.00;99952.75;5071938;28;19976;-66
2022/12/21 09:23:37;;;;;;;;;;;;;;;13.27;100.00;99956.00;5086102;28;19924;-66
2022/12/21 09:26:04;;;;;;;;;;;;;;;13.25;100.00;99963.22;5078216;28;20331;-66
2022/12/21 09:28:29;;;;;;;;;;;;;;;13.29;100.00;99962.16;5072603;28;19953;-66
2022/12/21 09:30:55;;;;;;;;;;;;;;;13.30;100.00;99963.00;5074428;28;20071;-66
2022/12/21 09:33:23;;;;;;;;;;;;;;;13.23;100.00;99966.91;5075381;28;20256;-66
2022/12/21 09:35:50;;;;;;;;;;;;;;;13.26;100.00;99966.75;5079468;28;20386;-67
2022/12/21 09:38:15;;;;;;;;;;;;;;;13.20;100.00;99968.78;5077720;28;19944;-66
2022/12/21 09:40:41;;;;;;;;;;;;;;;13.23;100.00;99966.91;5069729;28;19930;-66
2022/12/21 09:43:06;;;;;;;;;;;;;;;13.14;100.00;99969.06;5076321;28;19939;-65
2022/12/21 09:45:34;;;;;;;;;;;;;;;13.13;100.00;99966.41;5068911;28;19966;-66
2022/12/21 09:48:10;;;;;;;;;;;;;;;13.09;100.00;99971.06;5069169;28;20254;-65
2022/12/21 09:50:53;;;;;;;;;;;;;;;13.05;100.00;99955.19;5069398;28;19938;-65
2022/12/21 09:53:39;;;;;;;;;;;;;;;13.03;100.00;99960.63;5069385;28;19929;-66
2022/12/21 09:56:04;;;;;;;;;;;;;;;13.05;100.00;99974.78;5071066;28;20374;-66
2022/12/21 09:58:41;;;;;;;;;;;;;;;13.10;100.00;99970.09;5075576;28;19942;-66
2022/12/21 10:01:27;;;;;;;;;;;;;;;13.12;100.00;99960.22;5085351;28;19934;-66
2022/12/21 10:04:01;;;;;;;;;;;;;;;13.16;100.00;99967.16;5098594;28;20417;-65
2022/12/21 10:06:32;;;;;;;;;;;;;;;13.17;100.00;99965.38;5091522;28;20731;-66
2022/12/21 10:09:00;;;;;;;;;;;;;;;13.34;100.00;99967.28;5077330;28;20669;-65
2022/12/21 10:11:28;;;;;;;;;;;;;;;13.40;100.00;99959.00;5076472;28;19932;-66
2022/12/21 10:14:10;;;;;;;;;;;;;;;13.42;100.00;99962.47;5086522;28;20274;-66
2022/12/21 10:16:43;;;;;;;;;;;;;;;13.52;100.00;99961.13;5080298;28;19937;-66
2022/12/21 10:19:12;;;;;;;;;;;;;;;13.54;100.00;99967.28;5069378;28;20427;-66
2022/12/21 10:22:03;;;;;;;;;;;;;;;13.56;100.00;99968.06;5073352;28;19935;-65
2022/12/21 10:24:31;;;;;;;;;;;;;;;13.55;100.00;99963.66;5075819;28;19928;-66
2022/12/21 10:27:03;;;;;;;;;;;;;;;13.56;100.00;99960.06;5075460;28;20049;-66
2022/12/21 10:29:33;;;;;;;;;;;;;;;13.57;100.00;99951.09;5070491;28;19984;-68
2022/12/21 10:31:59;;;;;;;;;;;;;;;13.80;100.00;99950.91;5069023;28;19982;-67
2022/12/21 10:34:29;;;;;;;;;;;;;;;14.00;100.00;99953.50;5069050;28;19929;-67
2022/12/21 10:36:55;;;;;;;;;;;;;;;15.13;100.00;99951.38;5077038;28;21019;-67
2022/12/21 10:39:21;;;;;;;;;;;;;;;15.30;100.00;99951.34;5080034;28;19949;-67
2022/12/21 10:42:13;;;;;;;;;;;;;;;15.09;100.00;99947.09;5084822;28;19928;-67
2022/12/21 10:44:39;;;;;;;;;;;;;;;15.05;100.00;99950.03;5075602;28;19926;-67
2022/12/21 10:47:15;;;;;;;;;;;;;;;15.05;100.00;99961.63;5090908;28;20049;-65
2022/12/21 10:49:41;;;;;;;;;;;;;;;15.02;100.00;99951.06;5079977;28;20380;-67
2022/12/21 10:52:25;;;;;;;;;;;;;;;14.88;100.00;99953.56;5092977;28;19926;-67
2022/12/21 10:54:51;;;;;;;;;;;;;;;14.86;100.00;99951.94;5092102;28;19922;-67
2022/12/21 10:57:16;;;;;;;;;;;;;;;14.84;100.00;99951.13;5087788;28;19923;-67
2022/12/21 10:59:41;;;;;;;;;;;;;;;14.81;100.00;99951.28;5074768;28;20365;-67
2022/12/21 11:02:09;;;;;;;;;;;;;;;14.85;100.00;99948.38;5082234;28;19931;-67
2022/12/21 11:04:35;;;;;;;;;;;;;;;14.72;100.00;99941.91;5092654;28;19946;-66
2022/12/21 11:07:23;;;;;;;;;;;;;;;14.69;100.00;99947.44;5086575;28;19999;-67
2022/12/21 11:09:56;;;;;;;;;;;;;;;14.72;100.00;99941.03;5086365;28;19934;-67
2022/12/21 11:12:22;;;;;;;;;;;;;;;14.64;100.00;99944.09;5073711;28;19978;-67
2022/12/21 11:14:48;;;;;;;;;;;;;;;14.60;100.00;99949.66;5078340;28;19961;-67
2022/12/21 11:17:25;;;;;;;;;;;;;;;14.55;100.00;99952.59;5075328;28;19976;-67
2022/12/21 11:19:54;;;;;;;;;;;;;;;14.61;100.00;99941.59;5080128;28;19930;-67
2022/12/21 11:22:25;;;;;;;;;;;;;;;14.68;100.00;99936.78;5093588;28;20003;-68
2022/12/21 11:24:52;;;;;;;;;;;;;;;14.65;100.00;99940.47;5089852;28;19930;-68
2022/12/21 11:27:17;;;;;;;;;;;;;;;14.59;100.00;99946.16;5094031;28;20028;-68
2022/12/21 11:29:47;;;;;;;;;;;;;;;14.47;100.00;99941.41;5078923;28;20070;-68
2022/12/21 11:32:13;;;;;;;;;;;;;;;14.44;100.00;99946.91;5073916;28;19988;-68
2022/12/21 11:34:41;;;;;;;;;;;;;;;14.30;100.00;99938.66;5076951;28;19931;-67
2022/12/21 11:37:21;;;;;;;;;;;;;;;14.21;100.00;99939.09;5093985;28;19933;-66
2022/12/21 11:39:47;;;;;;;;;;;;;;;14.20;100.00;99932.03;5090737;28;19943;-67
2022/12/21 11:42:19;;;;;;;;;;;;;;;14.19;100.00;99930.28;5076149;28;19940;-67
2022/12/21 11:44:45;;;;;;;;;;;;;;;14.24;100.00;99928.25;5073982;28;20305;-67
2022/12/21 11:47:19;;;;;;;;;;;;;;;14.29;100.00;99927.13;5081220;28;19959;-67
2022/12/21 11:50:03;;;;;;;;;;;;;;;14.41;100.00;99920.31;5073574;28;19934;-67
2022/12/21 11:52:37;;;;;;;;;;;;;;;14.56;100.00;99919.53;5073998;28;19930;-66
2022/12/21 11:55:20;;;;;;;;;;;;;;;14.77;100.00;99913.09;5074266;28;19940;-67
2022/12/21 11:57:53;;;;;;;;;;;;;;;15.23;100.00;99906.19;5074758;28;20506;-67
2022/12/21 12:00:22;;;;;;;;;;;;;;;15.51;100.00;99899.31;5090389;28;20011;-67
2022/12/21 12:02:53;;;;;;;;;;;;;;;15.67;100.00;99896.63;5092150;28;20279;-67
2022/12/21 12:05:21;;;;;;;;;;;;;;;15.71;99.00;99899.09;5107541;28;19946;-67
2022/12/21 12:07:54;;;;;;;;;;;;;;;15.56;97.48;99893.69;5089482;28;20394;-67
2022/12/21 12:10:31;;;;;;;;;;;;;;;15.57;99.15;99895.41;5093658;28;19950;-67
2022/12/21 12:13:03;;;;;;;;;;;;;;;15.75;99.00;99887.22;5089276;28;19933;-67
2022/12/21 12:15:28;;;;;;;;;;;;;;;15.87;97.08;99898.22;5090173;28;20410;-67
2022/12/21 12:17:59;;;;;;;;;;;;;;;15.88;95.98;99891.91;5090812;28;19937;-67
2022/12/21 12:20:35;;;;;;;;;;;;;;;15.92;96.01;99890.78;5091110;28;19941;-66
2022/12/21 12:23:15;;;;;;;;;;;;;;;15.95;95.75;99883.41;5072637;28;19939;-67
2022/12/21 12:25:41;;;;;;;;;;;;;;;16.01;95.19;99874.16;5071908;28;19930;-66
2022/12/21 12:28:06;;;;;;;;;;;;;;;16.00;96.04;99877.78;5073827;28;20536;-67
2022/12/21 12:30:41;;;;;;;;;;;;;;;15.82;96.50;99887.75;5071737;28;20614;-66
2022/12/21 12:33:24;;;;;;;;;;;;;;;15.63;96.67;99879.84;5073975;28;19959;-67
2022/12/21 12:36:08;;;;;;;;;;;;;;;15.50;98.00;99872.59;5082249;28;19934;-65
2022/12/21 12:38:37;;;;;;;;;;;;;;;15.51;98.01;99875.19;5085469;28;19917;-67
2022/12/21 12:41:02;;;;;;;;;;;;;;;15.46;98.28;99865.66;5072500;28;20005;-67
2022/12/21 12:43:48;;;;;;;;;;;;;;;15.37;98.00;99872.34;5072636;28;19931;-67
2022/12/21 12:46:35;;;;;;;;;;;;;;;15.22;98.58;99872.31;5074754;28;20053;-67
2022/12/21 12:49:00;;;;;;;;;;;;;;;15.13;99.08;99868.31;5072266;28;20454;-67
2022/12/21 12:51:31;;;;;;;;;;;;;;;15.02;99.84;99870.69;5074558;28;19947;-66
2022/12/21 12:54:20;;;;;;;;;;;;;;;14.96;100.00;99862.97;5072364;28;19916;-66
2022/12/21 12:56:54;;;;;;;;;;;;;;;15.00;99.93;99853.84;5074219;28;19931;-66